sensor_id;sensor_type;location;lat;lon;timestamp;temperature;humidity
15072;DHT22;7635;56.696;13.002;2023-07-13T00:01:54;15.70;99.90
15072;DHT22;7635;56.696;13.002;2023-07-13T00:04:22;15.60;99.90
15072;DHT22;7635;56.696;13.002;2023-07-13T00:06:52;15.60;99.90
15072;DHT22;7635;56.696;13.002;2023-07-13T00:09:20;15.50;99.90
15072;DHT22;7635;56.696;13.002;2023-07-13T00:11:52;15.50;99.90
15072;DHT22;7635;56.696;13.002;2023-07-13T00:14:19;15.40;99.90
15072;DHT22;7635;56.696;13.002;2023-07-13T00:16:45;15.40;99.90
15072;DHT22;7635;56.696;13.002;2023-07-13T00:19:13;15.40;99.90
15072;DHT22;7635;56.696;13.002;2023-07-13T00:21:40;15.40;99.90
15072;DHT22;7635;56.696;13.002;2023-07-13T00:24:11;15.30;99.90
15072;DHT22;7635;56.696;13.002;2023-07-13T00:26:39;15.30;99.90
15072;DHT22;7635;56.696;13.002;2023-07-13T00:29:06;15.30;99.90
15072;DHT22;7635;56.696;13.002;2023-07-13T00:31:35;15.20;99.90
15072;DHT22;7635;56.696;13.002;2023-07-13T00:34:02;15.20;99.90
15072;DHT22;7635;56.696;13.002;2023-07-13T00:36:29;15.20;99.90
15072;DHT22;7635;56.696;13.002;2023-07-13T00:38:56;15.10;99.90
15072;DHT22;7635;56.696;13.002;2023-07-13T00:41:24;15.00;99.90
15072;DHT22;7635;56.696;13.002;2023-07-13T00:43:51;15.00;99.90
15072;DHT22;7635;56.696;13.002;2023-07-13T00:46:24;14.90;99.90
15072;DHT22;7635;56.696;13.002;2023-07-13T00:48:53;14.90;99.90
15072;DHT22;7635;56.696;13.002;2023-07-13T00:51:26;14.80;99.90
15072;DHT22;7635;56.696;13.002;2023-07-13T00:53:54;14.80;99.90
15072;DHT22;7635;56.696;13.002;2023-07-13T00:56:24;14.80;99.90
15072;DHT22;7635;56.696;13.002;2023-07-13T00:58:51;14.70;99.90
15072;DHT22;7635;56.696;13.002;2023-07-13T01:01:18;14.60;99.90
15072;DHT22;7635;56.696;13.002;2023-07-13T01:03:45;14.60;99.90
15072;DHT22;7635;56.696;13.002;2023-07-13T01:06:12;14.50;99.90
15072;DHT22;7635;56.696;13.002;2023-07-13T01:08:39;14.50;99.90
15072;DHT22;7635;56.696;13.002;2023-07-13T01:11:06;14.50;99.90
15072;DHT22;7635;56.696;13.002;2023-07-13T01:13:35;14.50;99.90
15072;DHT22;7635;56.696;13.002;2023-07-13T01:16:05;14.50;99.90
15072;DHT22;7635;56.696;13.002;2023-07-13T01:18:37;14.50;99.90
15072;DHT22;7635;56.696;13.002;2023-07-13T01:21:05;14.50;99.90
15072;DHT22;7635;56.696;13.002;2023-07-13T01:23:33;14.50;99.90
15072;DHT22;7635;56.696;13.002;2023-07-13T01:26:00;14.50;99.90
15072;DHT22;7635;56.696;13.002;2023-07-13T01:28:27;14.50;99.90
15072;DHT22;7635;56.696;13.002;2023-07-13T01:30:55;14.50;99.90
15072;DHT22;7635;56.696;13.002;2023-07-13T01:33:22;14.60;99.90
15072;DHT22;7635;56.696;13.002;2023-07-13T01:35:50;14.60;99.90
15072;DHT22;7635;56.696;13.002;2023-07-13T01:38:21;14.60;99.90
15072;DHT22;7635;56.696;13.002;2023-07-13T01:40:48;14.60;99.90
15072;DHT22;7635;56.696;13.002;2023-07-13T01:43:14;14.60;99.90
15072;DHT22;7635;56.696;13.002;2023-07-13T01:45:41;14.60;99.90
15072;DHT22;7635;56.696;13.002;2023-07-13T01:48:09;14.60;99.90
15072;DHT22;7635;56.696;13.002;2023-07-13T01:50:36;14.50;99.90
15072;DHT22;7635;56.696;13.002;2023-07-13T01:53:04;14.50;99.90
15072;DHT22;7635;56.696;13.002;2023-07-13T01:55:33;14.50;99.90
15072;DHT22;7635;56.696;13.002;2023-07-13T01:57:59;14.50;99.90
15072;DHT22;7635;56.696;13.002;2023-07-13T02:00:26;14.50;99.90
15072;DHT22;7635;56.696;13.002;2023-07-13T02:02:52;14.50;99.90
15072;DHT22;7635;56.696;13.002;2023-07-13T02:05:19;14.50;99.90
15072;DHT22;7635;56.696;13.002;2023-07-13T02:07:46;14.50;99.90
15072;DHT22;7635;56.696;13.002;2023-07-13T02:10:13;14.50;99.90
15072;DHT22;7635;56.696;13.002;2023-07-13T02:12:42;14.50;99.90
15072;DHT22;7635;56.696;13.002;2023-07-13T02:15:10;14.50;99.90
15072;DHT22;7635;56.696;13.002;2023-07-13T02:17:37;14.50;99.90
15072;DHT22;7635;56.696;13.002;2023-07-13T02:20:05;14.50;99.90
15072;DHT22;7635;56.696;13.002;2023-07-13T02:22:32;14.50;99.90
15072;DHT22;7635;56.696;13.002;2023-07-13T02:24:59;14.60;99.90
15072;DHT22;7635;56.696;13.002;2023-07-13T02:27:26;14.60;99.90
15072;DHT22;7635;56.696;13.002;2023-07-13T02:29:54;14.60;99.90
15072;DHT22;7635;56.696;13.002;2023-07-13T02:32:21;14.60;99.90
15072;DHT22;7635;56.696;13.002;2023-07-13T02:34:50;14.70;99.90
15072;DHT22;7635;56.696;13.002;2023-07-13T02:37:17;14.70;99.90
15072;DHT22;7635;56.696;13.002;2023-07-13T02:39:44;14.70;99.90
15072;DHT22;7635;56.696;13.002;2023-07-13T02:42:11;14.70;99.90
15072;DHT22;7635;56.696;13.002;2023-07-13T02:44:37;14.70;99.90
15072;DHT22;7635;56.696;13.002;2023-07-13T02:47:06;14.70;99.90
15072;DHT22;7635;56.696;13.002;2023-07-13T02:49:33;14.70;99.90
15072;DHT22;7635;56.696;13.002;2023-07-13T02:51:59;14.70;99.90
15072;DHT22;7635;56.696;13.002;2023-07-13T02:54:26;14.70;99.90
15072;DHT22;7635;56.696;13.002;2023-07-13T02:56:53;14.70;99.90
15072;DHT22;7635;56.696;13.002;2023-07-13T02:59:19;14.70;99.90
15072;DHT22;7635;56.696;13.002;2023-07-13T03:01:46;14.80;99.90
15072;DHT22;7635;56.696;13.002;2023-07-13T03:04:14;14.70;99.90
15072;DHT22;7635;56.696;13.002;2023-07-13T03:07:28;14.70;99.90
15072;DHT22;7635;56.696;13.002;2023-07-13T05:22:14;15.80;99.90
15072;DHT22;7635;56.696;13.002;2023-07-13T06:38:14;17.70;99.90
15072;DHT22;7635;56.696;13.002;2023-07-13T06:41:30;17.70;99.90
15072;DHT22;7635;56.696;13.002;2023-07-13T09:28:10;20.60;99.90
15072;DHT22;7635;56.696;13.002;2023-07-13T09:31:35;20.80;99.90
15072;DHT22;7635;56.696;13.002;2023-07-13T10:49:25;23.80;99.90
15072;DHT22;7635;56.696;13.002;2023-07-13T10:56:22;23.80;99.90
15072;DHT22;7635;56.696;13.002;2023-07-13T12:14:52;23.70;99.90
15072;DHT22;7635;56.696;13.002;2023-07-13T12:28:30;23.70;99.90
15072;DHT22;7635;56.696;13.002;2023-07-13T12:35:49;23.40;99.90
15072;DHT22;7635;56.696;13.002;2023-07-13T12:42:22;23.40;99.90
15072;DHT22;7635;56.696;13.002;2023-07-13T12:55:25;22.80;99.90
15072;DHT22;7635;56.696;13.002;2023-07-13T15:40:29;21.00;99.90
15072;DHT22;7635;56.696;13.002;2023-07-13T16:00:35;20.80;99.90
15072;DHT22;7635;56.696;13.002;2023-07-13T16:47:01;20.10;99.90
15072;DHT22;7635;56.696;13.002;2023-07-13T17:58:38;19.70;99.90
15072;DHT22;7635;56.696;13.002;2023-07-13T18:01:55;19.60;99.90
15072;DHT22;7635;56.696;13.002;2023-07-13T21:24:07;16.30;99.90
15072;DHT22;7635;56.696;13.002;2023-07-13T21:31:08;16.20;99.90
15072;DHT22;7635;56.696;13.002;2023-07-13T22:18:58;15.80;99.90
15072;DHT22;7635;56.696;13.002;2023-07-13T22:45:19;15.80;99.90
15072;DHT22;7635;56.696;13.002;2023-07-13T23:09:58;15.60;99.90
15072;DHT22;7635;56.696;13.002;2023-07-13T23:17:11;15.50;99.90
